Tropical Cyclones
[Index]
Main Index Home Page Stock Weather Photos Extreme Storms Discussion Storm News and Storm Chasing Reports Tropical Cyclones / Hurricanes / Typhoons Weather Data and Links Wild Fires / Bushfires Weather Observation Techniques Weather Picture Catalogue Tornado Pictures and Reports Stock Video Footage and DVDs for sale
Season 1972-1973 Tropical Cyclone CHARLOTTE Track Map
Season 1972-1973 Summaries: [BoM-AU] [JTWC-AU] [JTWC-SIO] [JTWC-SPAC] [JTWC-SH]
<<- Previous TC | JTWC 1972-1973 Season | Next TC ->>

click for intensity scale information  Lat/long Grid: Show Hide

 Date Labels: Show Hide

Joint Typhoon Warning Centre Cyclone Data

Name: CHARLOTTE
Number: 810 / 7308

02 Jan 1973 06:00 UTC to 12 Jan 1973 18:00 UTC

    date/time    lat    long     hPa   cat  kts
1973-01-02 06    7.0    60.0                              
1973-01-02 12    7.0    59.1                              
1973-01-02 18    7.2    58.2                              
1973-01-03 00    7.5    57.5                              
1973-01-03 06    8.1    56.7                              
1973-01-03 12    9.0    55.7                              
1973-01-03 18    9.9    54.4                              
1973-01-04 00   10.8    53.1                              
1973-01-04 06   11.7    51.7                              
1973-01-04 12   12.4    50.4                              
1973-01-04 18   13.0    49.0                              
1973-01-05 00   13.4    47.7                              
1973-01-05 06   13.9    46.7                              
1973-01-05 12   14.6    46.0                              
1973-01-05 18   15.3    45.6                              
1973-01-06 00   16.0    45.3                              
1973-01-06 06   16.8    45.1                              
1973-01-06 12   17.5    45.3                              
1973-01-06 18   18.3    45.9                              
1973-01-07 00   18.9    47.0                              
1973-01-07 06   19.3    48.0                              
1973-01-07 12   19.4    48.5                              
1973-01-07 18   19.5    48.9                              
1973-01-08 00   19.7    49.3                              
1973-01-08 06   19.9    49.9                              
1973-01-08 12   20.2    51.1                              
1973-01-08 18   20.5    52.5                              
1973-01-09 00   21.1    54.1                              
1973-01-09 06   21.7    55.3                              
1973-01-09 12   22.1    55.8                              
1973-01-09 18   22.3    56.1                              
1973-01-10 00   22.3    56.6                              
1973-01-10 06   22.3    57.0                              
1973-01-10 12   23.4    57.0                              
1973-01-10 18   24.6    56.9                              
1973-01-11 00   24.9    56.9                              
1973-01-11 06   25.3    57.1                              
1973-01-11 12   26.1    57.8                              
1973-01-11 18   26.9    58.8                              
1973-01-12 00   27.5    60.0                              
1973-01-12 06   28.0    61.2                              
1973-01-12 12   28.3    62.1                              
1973-01-12 18   28.5    62.8                              
Winds are 1-min average.

Tropical cyclone tracks developed by Michael Bath using data from the Joint Typhoon Warning Centre Best Tracks and Google Maps.


[Australian Severe Weather index] [Copyright Notice] [Email Contacts] [Search This Site] [Privacy Policy]
Document: tropical_cyclone_charlotte.htm Updated: 18 September 2016